Time;durP1;ratioP1;P1;durP2;ratioP2;P2;SDS_P1;SDS_P2;PMS_P1;PMS_P2;Temp;Humidity;BMP_temperature;BMP_pressure;BME280_temperature;BME280_humidity;BME280_pressure;Samples;Min_cycle;Max_cycle;Signal;HPM_P1;HPM_P2
2022/08/04 00:01:49;;;;;;;5.43;3.90;;;;;;;23.56;58.23;97880.47;5033627;28;20202;-72
2022/08/04 00:04:37;;;;;;;5.75;4.10;;;;;;;23.48;58.28;97881.97;5034225;28;20201;-72
2022/08/04 00:07:16;;;;;;;9.07;3.70;;;;;;;23.48;58.61;97884.69;5033621;28;20276;-72
2022/08/04 00:09:47;;;;;;;4.22;3.47;;;;;;;23.46;58.64;97877.97;5033405;28;20230;-72
2022/08/04 00:12:17;;;;;;;4.35;3.42;;;;;;;23.43;58.63;97875.88;5033867;28;20288;-72
2022/08/04 00:14:49;;;;;;;4.70;3.47;;;;;;;23.41;58.95;97872.66;5033459;28;20210;-72
2022/08/04 00:17:21;;;;;;;3.25;2.95;;;;;;;23.40;58.40;97871.88;5033444;28;20562;-72
2022/08/04 00:19:53;;;;;;;6.45;3.65;;;;;;;23.40;58.73;97871.06;5033663;28;20226;-72
2022/08/04 00:22:26;;;;;;;3.65;3.33;;;;;;;23.31;58.69;97889.97;5034087;28;20296;-72
2022/08/04 00:24:55;;;;;;;3.28;3.00;;;;;;;23.31;59.06;97886.47;5034200;28;20285;-72
2022/08/04 00:27:21;;;;;;;5.65;3.53;;;;;;;23.28;58.92;97889.75;5033328;28;20669;-72
2022/08/04 00:29:48;;;;;;;3.72;3.15;;;;;;;23.21;58.92;97887.50;5033106;28;20237;-72
2022/08/04 00:32:18;;;;;;;4.13;3.10;;;;;;;23.14;59.79;97886.25;5016125;28;20233;-72
2022/08/04 00:34:45;;;;;;;5.13;3.40;;;;;;;23.12;59.59;97881.16;5033502;28;20241;-72
2022/08/04 00:37:12;;;;;;;4.63;3.38;;;;;;;23.04;60.21;97887.28;5033504;28;20236;-72
2022/08/04 00:39:40;;;;;;;4.20;3.45;;;;;;;23.00;60.43;97888.16;5033962;28;20230;-72
2022/08/04 00:42:28;;;;;;;4.93;3.42;;;;;;;23.05;60.73;97888.06;5033464;28;20213;-72
2022/08/04 00:45:31;;;;;;;4.25;3.20;;;;;;;23.03;60.51;97884.88;5033472;28;20197;-72
2022/08/04 00:48:00;;;;;;;4.82;3.40;;;;;;;23.03;60.36;97884.88;5033988;28;20200;-72
2022/08/04 00:50:48;;;;;;;5.72;3.17;;;;;;;22.96;60.95;97879.03;5032912;28;20775;-72
2022/08/04 00:53:46;;;;;;;4.47;2.90;;;;;;;22.98;61.04;97882.25;5033140;28;20280;-72
2022/08/04 00:56:26;;;;;;;4.93;2.90;;;;;;;22.96;61.22;97873.59;5033304;28;20224;-72
2022/08/04 00:59:11;;;;;;;5.30;2.95;;;;;;;22.89;61.99;97884.84;5015576;28;20221;-72
2022/08/04 01:02:00;;;;;;;4.97;2.80;;;;;;;22.89;61.66;97881.34;5032927;28;20209;-72
2022/08/04 01:04:57;;;;;;;5.37;3.30;;;;;;;22.90;61.62;97877.53;5033319;28;20194;-72
2022/08/04 01:07:48;;;;;;;3.20;2.90;;;;;;;22.93;61.70;97883.16;5033992;28;20281;-72
2022/08/04 01:10:24;;;;;;;2.85;2.60;;;;;;;22.96;61.13;97889.88;5036766;28;20783;-72
2022/08/04 01:13:17;;;;;;;3.70;2.60;;;;;;;22.90;61.07;97882.97;5037145;28;20205;-72
2022/08/04 01:15:54;;;;;;;3.00;2.80;;;;;;;22.93;60.47;97882.38;5020460;28;20190;-72
2022/08/04 01:18:26;;;;;;;9.80;2.75;;;;;;;22.91;60.32;97887.25;5019429;28;20194;-72
2022/08/04 01:21:17;;;;;;;5.57;2.90;;;;;;;22.91;60.37;97881.84;5036678;28;20650;-72
2022/08/04 01:24:17;;;;;;;2.93;2.47;;;;;;;22.93;60.05;97883.16;5037524;28;20201;-72
2022/08/04 01:27:06;;;;;;;4.32;2.55;;;;;;;22.84;60.33;97884.97;5036596;28;20233;-73
2022/08/04 01:29:50;;;;;;;4.23;2.43;;;;;;;22.77;60.59;97878.34;5036621;28;20287;-72
2022/08/04 01:32:28;;;;;;;4.00;2.88;;;;;;;22.79;59.98;97885.06;5036766;28;20209;-72
2022/08/04 01:35:06;;;;;;;3.77;2.60;;;;;;;22.79;60.73;97876.94;5036762;28;20289;-72
2022/08/04 01:37:54;;;;;;;3.47;2.60;;;;;;;22.77;60.78;97873.72;5036755;28;20217;-72
2022/08/04 01:40:21;;;;;;;3.92;2.40;;;;;;;22.73;60.42;97872.72;5036247;28;20236;-72
2022/08/04 01:42:53;;;;;;;2.97;2.67;;;;;;;22.71;60.84;97871.41;5036577;28;20238;-72
2022/08/04 01:45:20;;;;;;;2.90;2.60;;;;;;;22.64;60.83;97874.53;5036847;28;20209;-72
2022/08/04 01:47:52;;;;;;;3.67;2.53;;;;;;;22.57;61.47;97871.41;5036404;28;20283;-72
2022/08/04 01:50:19;;;;;;;2.70;2.30;;;;;;;22.57;61.52;97876.03;5036239;28;20338;-72
2022/08/04 01:52:46;;;;;;;5.20;3.10;;;;;;;22.47;62.02;97868.09;5036369;28;20210;-72
2022/08/04 01:55:15;;;;;;;3.58;2.80;;;;;;;22.42;62.25;97878.97;5036045;28;20249;-72
2022/08/04 01:57:44;;;;;;;3.13;2.57;;;;;;;22.27;63.08;97868.41;5035969;28;20273;-72
2022/08/04 02:00:13;;;;;;;2.60;2.40;;;;;;;22.29;61.66;97872.44;5036173;28;20232;-72
2022/08/04 02:02:39;;;;;;;3.93;2.30;;;;;;;22.29;62.35;97877.06;5036201;28;20244;-72
2022/08/04 02:05:10;;;;;;;3.10;2.50;;;;;;;22.23;63.06;97872.81;5036201;28;20237;-72
2022/08/04 02:07:55;;;;;;;4.87;2.53;;;;;;;22.34;61.71;97869.63;5035838;28;20230;-72
2022/08/04 02:10:28;;;;;;;3.63;2.80;;;;;;;22.32;61.74;97868.31;5035634;28;20320;-72
2022/08/04 02:13:04;;;;;;;3.80;3.13;;;;;;;22.25;61.81;97867.91;5035753;28;20557;-72
2022/08/04 02:15:36;;;;;;;3.70;2.80;;;;;;;22.32;61.43;97866.44;5035895;28;20284;-72
2022/08/04 02:18:39;;;;;;;3.30;2.73;;;;;;;22.25;61.58;97867.91;5035918;28;20206;-72
2022/08/04 02:21:06;;;;;;;5.37;2.87;;;;;;;22.21;62.04;97870.41;5033506;28;20206;-72
2022/08/04 02:23:40;;;;;;;2.70;2.50;;;;;;;22.19;62.55;97863.69;5035624;28;20241;-72
2022/08/04 02:26:13;;;;;;;5.53;2.93;;;;;;;22.12;62.51;97855.94;5035408;28;20726;-72
2022/08/04 02:28:48;;;;;;;5.43;2.93;;;;;;;22.00;63.06;97865.63;5035563;28;20254;-72
2022/08/04 02:31:26;;;;;;;4.70;2.47;;;;;;;21.92;63.28;97863.59;5035607;28;20251;-72
2022/08/04 02:34:05;;;;;;;4.77;2.60;;;;;;;21.81;64.13;97857.56;5018320;28;20198;-72
2022/08/04 02:36:36;;;;;;;4.33;3.10;;;;;;;21.82;63.61;97851.06;5035314;28;20720;-72
2022/08/04 02:39:06;;;;;;;5.20;2.93;;;;;;;21.86;63.29;97851.25;5035547;28;20316;-72
2022/08/04 02:41:34;;;;;;;3.63;2.80;;;;;;;21.83;63.57;97852.66;5035500;28;20302;-72
2022/08/04 02:44:06;;;;;;;4.27;2.43;;;;;;;21.75;63.96;97853.31;5035372;28;20202;-72
2022/08/04 02:46:36;;;;;;;4.40;2.53;;;;;;;21.74;63.85;97850.91;5035839;28;20305;-72
2022/08/04 02:49:08;;;;;;;3.10;2.60;;;;;;;21.77;63.51;97853.03;5035891;28;20317;-72
2022/08/04 02:51:44;;;;;;;3.03;2.60;;;;;;;21.77;63.50;97848.44;5035301;28;20608;-72
2022/08/04 02:54:11;;;;;;;3.83;3.00;;;;;;;21.80;63.49;97852.44;5034955;28;20285;-72
2022/08/04 02:56:40;;;;;;;4.27;2.60;;;;;;;21.76;63.35;97846.84;5035121;28;20305;-72
2022/08/04 02:59:09;;;;;;;4.10;2.90;;;;;;;21.72;64.20;97848.53;5034968;28;20230;-72
2022/08/04 03:01:36;;;;;;;6.33;3.13;;;;;;;21.65;64.29;97849.94;5035040;28;20202;-72
2022/08/04 03:04:17;;;;;;;6.07;2.80;;;;;;;21.64;64.16;97848.34;5034921;28;20216;-72
2022/08/04 03:06:52;;;;;;;4.43;2.60;;;;;;;21.65;64.23;97850.75;5034994;28;20197;-72
2022/08/04 03:09:31;;;;;;;5.63;2.57;;;;;;;21.63;64.14;97850.25;5017061;28;20720;-72
2022/08/04 03:12:20;;;;;;;3.10;2.80;;;;;;;21.59;64.56;97846.53;5017565;28;20726;-72
2022/08/04 03:15:22;;;;;;;3.40;3.00;;;;;;;21.58;64.87;97844.94;5034682;28;20292;-72
2022/08/04 03:18:10;;;;;;;4.17;2.63;;;;;;;21.59;64.77;97851.13;5018145;28;20209;-72
2022/08/04 03:21:07;;;;;;;4.10;2.80;;;;;;;21.52;64.96;97851.50;5035181;28;20230;-72
2022/08/04 03:24:00;;;;;;;6.90;3.00;;;;;;;21.46;65.46;97854.56;5034602;28;20205;-72
2022/08/04 03:26:41;;;;;;;2.90;2.63;;;;;;;21.40;65.91;97850.34;5034314;28;20190;-72
2022/08/04 03:29:18;;;;;;;5.13;2.80;;;;;;;21.40;65.53;97858.44;5033964;28;20776;-72
2022/08/04 03:32:08;;;;;;;3.10;2.77;;;;;;;21.38;65.99;97857.94;5034103;28;20226;-72
2022/08/04 03:35:07;;;;;;;3.97;2.60;;;;;;;21.48;64.97;97855.88;5034836;28;20201;-72
2022/08/04 03:37:43;;;;;;;4.73;2.53;;;;;;;21.42;64.98;97857.06;5019070;28;20699;-72
2022/08/04 03:40:34;;;;;;;6.10;3.00;;;;;;;21.39;65.38;97865.75;5034017;28;20253;-72
2022/08/04 03:43:10;;;;;;;3.70;2.67;;;;;;;21.41;65.60;97868.16;5034046;28;20190;-72
2022/08/04 03:45:49;;;;;;;4.00;2.53;;;;;;;21.33;66.29;97868.81;5016484;28;20196;-72
2022/08/04 03:48:40;;;;;;;3.60;2.50;;;;;;;21.25;66.62;97867.56;5034033;28;20621;-72
2022/08/04 03:54:32;;;;;;;3.83;2.50;;;;;;;21.17;66.88;97865.53;5034348;28;20533;-72
2022/08/04 03:57:25;;;;;;;5.00;2.80;;;;;;;21.24;66.86;97862.44;5034102;28;20239;-72
2022/08/04 04:00:20;;;;;;;3.50;2.93;;;;;;;21.25;66.60;97856.75;5018150;28;20310;-71
2022/08/04 04:03:11;;;;;;;3.07;2.73;;;;;;;21.30;66.57;97858.59;5033725;28;20202;-72
2022/08/04 04:05:37;;;;;;;3.37;2.60;;;;;;;21.26;67.11;97857.56;5033691;28;20288;-71
2022/08/04 04:08:12;;;;;;;6.10;2.77;;;;;;;21.28;66.88;97860.78;5033626;28;20264;-72
2022/08/04 04:11:05;;;;;;;6.57;2.97;;;;;;;21.29;66.63;97859.69;5033108;28;20595;-71
2022/08/04 04:13:59;;;;;;;6.60;2.53;;;;;;;21.29;66.02;97860.47;5033597;28;20201;-72
2022/08/04 04:16:56;;;;;;;3.97;2.40;;;;;;;21.34;65.57;97857.72;5033322;28;20285;-72
2022/08/04 04:19:51;;;;;;;4.47;2.63;;;;;;;21.37;65.38;97857.13;5016082;28;20641;-72
2022/08/04 04:22:29;;;;;;;3.50;2.63;;;;;;;21.29;65.58;97862.41;5033591;28;20268;-71
2022/08/04 04:25:08;;;;;;;3.23;2.53;;;;;;;21.34;65.03;97851.50;5033261;28;20293;-72
2022/08/04 04:27:43;;;;;;;3.63;2.80;;;;;;;21.40;64.42;97859.25;5033511;28;20284;-71
2022/08/04 04:30:48;;;;;;;6.03;2.70;;;;;;;21.39;64.30;97854.16;5033545;28;20328;-72
2022/08/04 04:33:33;;;;;;;4.97;2.80;;;;;;;21.44;64.45;97859.47;5032045;28;20296;-71
2022/08/04 04:36:29;;;;;;;6.80;2.67;;;;;;;21.44;64.54;97857.56;5032946;28;20189;-72
2022/08/04 04:39:17;;;;;;;8.90;2.77;;;;;;;21.47;64.05;97859.69;5033110;28;20222;-72
2022/08/04 04:42:07;;;;;;;7.23;2.60;;;;;;;21.50;63.90;97858.28;5033605;28;20269;-72
2022/08/04 04:44:52;;;;;;;4.73;2.77;;;;;;;21.52;64.07;97858.81;5024425;28;20360;-71
2022/08/04 04:47:30;;;;;;;6.30;3.37;;;;;;;21.54;64.70;97864.72;5039140;28;20229;-71
2022/08/04 04:50:14;;;;;;;5.17;2.70;;;;;;;21.58;64.72;97865.75;5039862;28;20228;-71
2022/08/04 04:52:59;;;;;;;5.77;2.57;;;;;;;21.58;64.38;97865.75;5039309;28;20210;-71
2022/08/04 04:55:30;;;;;;;4.30;2.80;;;;;;;21.68;63.80;97869.13;5038945;28;20621;-72
2022/08/04 04:58:01;;;;;;;6.57;3.03;;;;;;;21.69;63.18;97873.44;5039322;28;20276;-72
2022/08/04 05:00:49;;;;;;;4.77;2.83;;;;;;;21.72;62.93;97867.47;5039147;28;20233;-72
2022/08/04 05:03:34;;;;;;;3.40;2.50;;;;;;;21.82;62.90;97877.31;5022913;28;20190;-72
2022/08/04 05:06:43;;;;;;;3.53;2.50;;;;;;;21.97;62.66;97883.28;5022838;28;20193;-72
2022/08/04 05:09:51;;;;;;;3.87;2.53;;;;;;;22.15;61.05;97874.31;5039403;28;20221;-71
2022/08/04 05:12:37;;;;;;;3.50;2.27;;;;;;;22.40;60.19;97875.78;5039777;28;20225;-72
2022/08/04 05:15:07;;;;;;;3.20;2.27;;;;;;;22.64;59.22;97871.81;5039000;28;20537;-71
2022/08/04 05:17:39;;;;;;;4.40;2.33;;;;;;;22.67;58.91;97873.13;5040018;28;20297;-71
2022/08/04 05:20:12;;;;;;;3.72;2.42;;;;;;;22.71;59.20;97879.53;5038942;28;20316;-71
2022/08/04 05:22:46;;;;;;;3.50;2.17;;;;;;;22.59;58.98;97879.22;5039018;28;20190;-72
2022/08/04 05:25:18;;;;;;;3.50;2.50;;;;;;;22.54;59.49;97880.13;5021924;28;20190;-71
2022/08/04 05:27:56;;;;;;;4.60;2.30;;;;;;;22.56;59.79;97882.56;5039127;28;20665;-71
2022/08/04 05:30:25;;;;;;;3.13;2.20;;;;;;;22.75;59.60;97877.84;5038843;28;20237;-71
2022/08/04 05:33:13;;;;;;;5.17;2.90;;;;;;;22.71;59.90;97874.91;5021098;28;20313;-71
2022/08/04 05:35:45;;;;;;;3.43;2.30;;;;;;;22.81;59.08;97876.63;5039229;28;20194;-71
2022/08/04 05:38:18;;;;;;;4.30;2.47;;;;;;;22.88;59.79;97875.13;5021868;28;20288;-72
2022/08/04 05:40:45;;;;;;;3.47;2.43;;;;;;;22.93;59.58;97883.16;5039119;28;20561;-72
2022/08/04 05:43:13;;;;;;;3.27;2.30;;;;;;;23.05;58.91;97877.22;5038643;28;20301;-71
2022/08/04 05:45:41;;;;;;;4.33;2.60;;;;;;;23.20;58.32;97879.66;5038683;28;20304;-72
2022/08/04 05:48:08;;;;;;;5.60;2.33;;;;;;;23.13;58.44;97877.31;5038765;28;20258;-71
2022/08/04 05:50:36;;;;;;;4.07;2.73;;;;;;;23.29;57.94;97881.34;5038302;28;20221;-72
2022/08/04 05:53:03;;;;;;;5.03;2.40;;;;;;;23.34;58.33;97883.16;5038941;28;20222;-71
2022/08/04 05:55:30;;;;;;;4.00;2.60;;;;;;;23.48;58.22;97881.97;5017584;28;20744;-71
2022/08/04 05:57:59;;;;;;;6.85;2.92;;;;;;;23.45;57.69;97873.66;5035776;28;20241;-71
2022/08/04 06:00:27;;;;;;;7.55;2.83;;;;;;;23.52;57.63;97880.28;5035436;28;20316;-72
2022/08/04 06:02:55;;;;;;;2.47;2.28;;;;;;;23.71;56.84;97883.66;5037974;28;20198;-71
2022/08/04 06:05:23;;;;;;;3.08;2.40;;;;;;;23.95;56.42;97883.38;5038369;28;20301;-71
2022/08/04 06:07:50;;;;;;;5.32;2.42;;;;;;;24.07;56.10;97881.72;5038241;28;20275;-71
2022/08/04 06:10:17;;;;;;;4.35;2.60;;;;;;;23.98;56.01;97882.75;5038214;28;20660;-72
2022/08/04 06:12:52;;;;;;;3.85;2.72;;;;;;;24.01;56.08;97891.09;5038115;28;20664;-71
2022/08/04 06:15:21;;;;;;;4.05;2.60;;;;;;;23.98;56.03;97886.28;5037806;28;20281;-72
2022/08/04 06:17:55;;;;;;;6.28;2.40;;;;;;;23.93;55.60;97882.88;5037555;28;20570;-71
2022/08/04 06:20:26;;;;;;;5.43;2.38;;;;;;;24.17;55.20;97886.88;5037409;28;20282;-71
2022/08/04 06:22:57;;;;;;;2.63;2.30;;;;;;;24.26;54.99;97881.50;5037475;28;20182;-71
2022/08/04 06:25:29;;;;;;;3.67;2.60;;;;;;;24.41;54.80;97881.09;5019970;28;20632;-71
2022/08/04 06:27:56;;;;;;;5.05;2.80;;;;;;;24.37;54.71;97878.22;5037576;28;20286;-69
2022/08/04 06:30:25;;;;;;;5.32;2.65;;;;;;;24.57;54.28;97885.84;5037124;28;20229;-73
2022/08/04 06:32:55;;;;;;;3.75;2.42;;;;;;;24.41;54.46;97884.63;5036776;28;20279;-71
2022/08/04 06:35:24;;;;;;;6.10;2.78;;;;;;;24.57;53.78;97891.28;5038072;28;20300;-71
2022/08/04 06:37:53;;;;;;;4.63;2.72;;;;;;;24.53;54.02;97889.47;5037715;28;20238;-70
2022/08/04 06:40:21;;;;;;;4.13;2.83;;;;;;;24.49;54.15;97886.59;5035930;28;20655;-70
2022/08/04 06:42:49;;;;;;;3.88;2.60;;;;;;;24.51;53.76;97881.63;5034745;28;20234;-70
2022/08/04 06:45:17;;;;;;;5.50;2.70;;;;;;;24.63;53.87;97889.22;5034380;28;20210;-70
2022/08/04 06:47:46;;;;;;;6.95;3.03;;;;;;;24.68;53.74;97891.81;5034754;28;20206;-71
2022/08/04 06:50:13;;;;;;;2.97;2.20;;;;;;;24.89;53.39;97898.31;5034050;28;20251;-70
2022/08/04 06:52:39;;;;;;;4.18;2.92;;;;;;;24.80;53.27;97890.13;5034528;28;20217;-70
2022/08/04 06:55:07;;;;;;;3.92;2.88;;;;;;;25.01;53.49;97896.59;5034768;28;20216;-70
2022/08/04 06:57:36;;;;;;;3.38;3.03;;;;;;;25.15;52.97;97893.75;5034847;28;20214;-70
2022/08/04 07:00:10;;;;;;;4.88;2.95;;;;;;;25.33;52.67;97884.56;5034168;28;20293;-70
2022/08/04 07:02:49;;;;;;;7.15;4.93;;;;;;;25.39;52.37;97886.00;5034654;28;20285;-70
2022/08/04 07:05:17;;;;;;;6.70;4.28;;;;;;;25.56;51.80;97888.75;5034083;28;20190;-70
2022/08/04 07:07:44;;;;;;;5.82;3.35;;;;;;;25.52;52.06;97895.94;5035346;28;20289;-70
2022/08/04 07:10:11;;;;;;;5.03;3.35;;;;;;;25.54;51.80;97894.50;5034609;28;20313;-70
2022/08/04 07:12:39;;;;;;;9.00;3.08;;;;;;;25.65;51.96;97890.34;5034334;28;20221;-70
2022/08/04 07:15:07;;;;;;;5.25;3.80;;;;;;;25.70;51.68;97887.44;5034178;28;20213;-70
2022/08/04 07:17:35;;;;;;;9.32;5.82;;;;;;;25.80;51.60;97892.59;5034529;28;20202;-70
2022/08/04 07:20:05;;;;;;;6.38;3.47;;;;;;;26.04;50.99;97892.94;5034481;28;20321;-70
2022/08/04 07:22:32;;;;;;;4.22;3.25;;;;;;;26.16;50.80;97884.91;5034621;28;20202;-70
2022/08/04 07:24:59;;;;;;;4.97;3.25;;;;;;;26.16;50.55;97879.47;5034077;28;20202;-70
2022/08/04 07:27:26;;;;;;;7.25;3.92;;;;;;;26.25;50.58;97888.41;5034462;28;20300;-70
2022/08/04 07:29:53;;;;;;;4.80;3.38;;;;;;;26.37;50.43;97879.56;5033888;28;20230;-70
2022/08/04 07:32:21;;;;;;;10.43;4.93;;;;;;;26.47;50.26;97877.28;5034206;28;20233;-70
2022/08/04 07:34:49;;;;;;;7.85;4.60;;;;;;;26.61;49.68;97879.84;5033936;28;20300;-70
2022/08/04 07:37:16;;;;;;;5.97;5.20;;;;;;;26.62;50.25;97876.78;5033946;28;20669;-70
2022/08/04 07:39:43;;;;;;;7.75;5.78;;;;;;;26.66;49.83;97883.19;5034121;28;20235;-70
2022/08/04 07:42:10;;;;;;;7.03;5.35;;;;;;;26.72;49.90;97879.16;5033632;28;20318;-70
2022/08/04 07:44:37;;;;;;;7.25;4.47;;;;;;;26.88;49.49;97884.88;5033772;28;20201;-70
2022/08/04 07:47:06;;;;;;;8.07;4.00;;;;;;;27.00;48.97;97879.53;5033894;28;20205;-71
2022/08/04 07:49:33;;;;;;;9.90;7.30;;;;;;;27.00;48.85;97877.56;5033891;28;20320;-71
2022/08/04 07:52:01;;;;;;;5.15;4.03;;;;;;;26.94;49.16;97880.81;5033736;28;20335;-71
2022/08/04 07:54:27;;;;;;;6.95;4.07;;;;;;;27.08;49.00;97881.38;5033728;28;20210;-70
2022/08/04 07:56:54;;;;;;;6.82;4.22;;;;;;;27.24;48.74;97868.81;5000024;28;20329;-70
2022/08/04 07:59:21;;;;;;;8.25;4.15;;;;;;;27.47;48.31;97875.56;5033681;28;20316;-71
2022/08/04 08:01:48;;;;;;;10.68;8.30;;;;;;;27.62;47.76;97877.69;5033942;28;20202;-70
2022/08/04 08:04:15;;;;;;;10.23;9.02;;;;;;;27.73;46.63;97872.63;5033605;28;20696;-70
2022/08/04 08:06:42;;;;;;;6.60;2.95;;;;;;;27.85;47.46;97870.00;5033954;28;20612;-70
2022/08/04 08:09:14;;;;;;;48.03;43.47;;;;;;;28.02;46.87;97870.63;5033304;28;20753;-70
2022/08/04 08:11:49;;;;;;;6.93;4.22;;;;;;;28.08;46.48;97863.81;5033326;28;20647;-71
2022/08/04 08:14:16;;;;;;;7.15;4.28;;;;;;;28.23;45.11;97865.94;5033274;28;20215;-70
2022/08/04 08:16:43;;;;;;;7.28;4.40;;;;;;;28.24;45.26;97867.53;5032933;28;20297;-70
2022/08/04 08:19:10;;;;;;;8.68;4.10;;;;;;;28.40;44.98;97865.75;5033208;28;20316;-71
2022/08/04 08:21:37;;;;;;;5.90;3.83;;;;;;;28.50;44.17;97870.81;5032867;28;20201;-71
2022/08/04 08:24:05;;;;;;;7.20;6.53;;;;;;;28.70;44.33;97869.13;5033524;28;20297;-71
2022/08/04 08:26:32;;;;;;;17.38;15.65;;;;;;;28.68;43.75;97864.03;5033261;28;20296;-71
2022/08/04 08:28:58;;;;;;;13.38;6.75;;;;;;;28.83;43.12;97866.06;5033196;28;20643;-71
2022/08/04 08:31:25;;;;;;;9.77;6.40;;;;;;;28.93;44.09;97862.09;5015819;28;20297;-71
2022/08/04 08:33:53;;;;;;;13.55;11.70;;;;;;;29.07;43.47;97863.38;5033199;28;20301;-70
2022/08/04 08:36:34;;;;;;;5.38;2.83;;;;;;;29.29;42.62;97864.81;5015818;28;20212;-70
2022/08/04 08:39:10;;;;;;;9.85;7.78;;;;;;;29.26;42.75;97865.53;5032857;28;20233;-71
2022/08/04 08:41:36;;;;;;;6.80;3.55;;;;;;;29.40;43.01;97864.03;5033213;28;20190;-70
2022/08/04 08:44:15;;;;;;;7.60;3.28;;;;;;;29.50;42.49;97854.53;5033007;28;20221;-71
2022/08/04 08:47:09;;;;;;;5.00;3.10;;;;;;;29.56;41.97;97858.63;5032805;28;20639;-70
2022/08/04 08:49:59;;;;;;;4.22;2.92;;;;;;;29.66;41.85;97858.19;5015682;28;20312;-71
2022/08/04 08:52:31;;;;;;;3.63;2.85;;;;;;;29.75;41.44;97859.63;5033179;28;20302;-71
2022/08/04 08:55:26;;;;;;;7.15;3.50;;;;;;;29.89;41.31;97860.03;5032791;28;20252;-71
2022/08/04 08:58:08;;;;;;;11.57;9.50;;;;;;;29.93;41.19;97860.16;5033159;28;20186;-71
2022/08/04 09:00:46;;;;;;;5.38;3.35;;;;;;;30.04;40.67;97870.25;5032967;28;20308;-70
2022/08/04 09:03:30;;;;;;;5.53;5.00;;;;;;;30.20;40.50;97860.16;5032807;28;20544;-71
2022/08/04 09:06:11;;;;;;;6.35;5.85;;;;;;;30.40;39.94;97867.38;5033072;28;20186;-71
2022/08/04 09:08:57;;;;;;;2.70;2.50;;;;;;;30.52;39.46;97859.06;5032686;28;20739;-70
2022/08/04 09:11:28;;;;;;;8.60;6.30;;;;;;;30.52;39.78;97856.31;5032882;28;20272;-70
2022/08/04 09:13:58;;;;;;;5.55;5.03;;;;;;;30.82;39.11;97862.19;5032537;28;20291;-71
2022/08/04 09:16:35;;;;;;;7.50;6.78;;;;;;;30.55;38.98;97857.53;5014841;28;20289;-71
2022/08/04 09:19:05;;;;;;;5.88;5.00;;;;;;;30.64;38.88;97858.16;5032857;28;20239;-71
2022/08/04 09:21:56;;;;;;;7.10;6.40;;;;;;;31.08;37.87;97854.22;5032776;28;20206;-70
2022/08/04 09:24:58;;;;;;;5.47;3.90;;;;;;;31.16;37.76;97861.47;5032821;28;20198;-70
2022/08/04 09:27:31;;;;;;;9.52;8.70;;;;;;;31.35;37.20;97867.03;4989334;28;20210;-70
2022/08/04 09:30:05;;;;;;;5.28;3.60;;;;;;;31.68;36.21;97859.94;5018596;28;20320;-70
2022/08/04 09:32:38;;;;;;;4.72;4.32;;;;;;;31.75;36.27;97857.34;5036369;28;20249;-70
2022/08/04 09:35:42;;;;;;;9.15;8.35;;;;;;;31.65;35.59;97857.13;5036549;28;20308;-71
2022/08/04 09:38:34;;;;;;;5.65;3.53;;;;;;;31.56;35.00;97859.28;5036518;28;20186;-71
2022/08/04 09:41:23;;;;;;;3.30;3.00;;;;;;;31.88;33.88;97855.28;5036520;28;20194;-71
2022/08/04 09:44:20;;;;;;;3.35;3.05;;;;;;;31.74;34.66;97850.25;5018653;28;20194;-70
2022/08/04 09:46:47;;;;;;;6.15;5.40;;;;;;;31.95;34.19;97844.41;5036166;28;20200;-70
2022/08/04 09:49:23;;;;;;;7.03;6.38;;;;;;;31.82;33.27;97843.78;5036169;28;20308;-71
2022/08/04 09:51:52;;;;;;;4.95;3.15;;;;;;;32.19;33.59;97844.13;5036077;28;20282;-70
2022/08/04 09:54:28;;;;;;;6.88;6.28;;;;;;;32.10;33.87;97843.56;5035684;28;20636;-70
2022/08/04 09:57:51;;;;;;;6.38;5.65;;;;;;;32.59;33.82;97850.78;5035878;28;20649;-70
2022/08/04 10:00:19;;;;;;;7.13;5.20;;;;;;;32.81;33.68;97838.19;5013045;28;20632;-70
2022/08/04 10:03:01;;;;;;;3.65;3.20;;;;;;;32.94;33.16;97845.09;5035645;28;20214;-70
2022/08/04 10:06:06;;;;;;;4.93;2.47;;;;;;;32.95;32.88;97839.22;5036029;28;20229;-71
2022/08/04 10:09:04;;;;;;;4.22;2.10;;;;;;;33.27;31.90;97839.72;5017540;28;20220;-70
2022/08/04 10:11:40;;;;;;;4.97;4.15;;;;;;;33.22;32.04;97835.31;5035113;28;20280;-70
2022/08/04 10:14:35;;;;;;;4.70;2.80;;;;;;;33.30;31.55;97828.78;5035625;28;20300;-70
2022/08/04 10:17:10;;;;;;;3.30;2.45;;;;;;;33.74;31.30;97824.25;5010403;28;20236;-70
2022/08/04 10:19:40;;;;;;;3.70;2.20;;;;;;;33.81;30.55;97826.31;5017948;28;20235;-69
2022/08/04 10:22:18;;;;;;;3.22;2.35;;;;;;;33.67;30.57;97818.66;5035577;28;20217;-70
2022/08/04 10:25:06;;;;;;;5.85;4.65;;;;;;;33.41;31.04;97820.66;5035648;28;20193;-70
2022/08/04 10:27:40;;;;;;;4.13;2.50;;;;;;;33.83;31.03;97812.16;5035188;28;20194;-70
2022/08/04 10:30:11;;;;;;;2.67;2.05;;;;;;;33.72;29.59;97809.25;5035134;28;20233;-69
2022/08/04 10:32:55;;;;;;;3.03;2.42;;;;;;;33.72;29.34;97811.22;5035863;28;20214;-69
2022/08/04 10:35:25;;;;;;;2.50;2.25;;;;;;;33.91;30.15;97808.34;5035547;28;20190;-70
2022/08/04 10:38:15;;;;;;;2.40;2.30;;;;;;;33.96;29.85;97811.56;5035311;28;20198;-70
2022/08/04 10:41:11;;;;;;;2.40;2.30;;;;;;;33.98;29.88;97806.44;5034148;28;20304;-70
2022/08/04 10:44:23;;;;;;;3.88;2.10;;;;;;;33.84;28.62;97800.75;5034750;28;20285;-70
2022/08/04 10:46:55;;;;;;;2.50;2.30;;;;;;;34.00;29.14;97803.31;4972583;28;20260;-69
2022/08/04 10:49:31;;;;;;;5.15;4.72;;;;;;;34.12;28.19;97803.03;5034740;28;20313;-70
2022/08/04 10:52:07;;;;;;;4.35;3.88;;;;;;;34.23;27.67;97803.94;5016954;28;20189;-70
2022/08/04 10:55:02;;;;;;;4.07;3.22;;;;;;;34.34;28.41;97797.41;5035345;28;20194;-69
2022/08/04 10:57:42;;;;;;;3.63;2.15;;;;;;;34.36;27.94;97802.53;5034926;28;20635;-69
2022/08/04 11:00:18;;;;;;;3.15;1.95;;;;;;;34.49;27.08;97792.81;5034652;28;20308;-70
2022/08/04 11:03:05;;;;;;;2.33;2.13;;;;;;;34.51;26.77;97793.22;5034802;28;20197;-70
2022/08/04 11:05:41;;;;;;;4.95;4.63;;;;;;;34.54;27.32;97795.22;5018786;28;20335;-70
2022/08/04 11:08:20;;;;;;;4.32;4.03;;;;;;;34.28;26.90;97803.59;5033917;28;20186;-70
2022/08/04 11:11:01;;;;;;;2.65;2.45;;;;;;;33.38;27.48;97797.38;5016719;28;20212;-70
2022/08/04 11:13:54;;;;;;;3.38;2.30;;;;;;;33.63;28.33;97791.41;5016980;28;20216;-69
2022/08/04 11:16:27;;;;;;;3.05;2.08;;;;;;;34.11;27.20;97785.69;5034222;28;20194;-70
2022/08/04 11:19:12;;;;;;;2.47;2.28;;;;;;;34.66;26.68;97794.91;5034997;28;20236;-69
2022/08/04 11:22:04;;;;;;;12.23;11.10;;;;;;;34.32;27.27;97782.38;5034418;28;20209;-69
2022/08/04 11:24:39;;;;;;;2.70;2.50;;;;;;;34.71;26.55;97786.28;5017195;28;20637;-69
2022/08/04 11:27:15;;;;;;;2.50;2.30;;;;;;;34.80;25.42;97797.81;5016489;28;20200;-69
2022/08/04 11:29:56;;;;;;;3.25;2.17;;;;;;;34.69;25.75;97797.72;5017094;28;20665;-69
2022/08/04 11:32:55;;;;;;;2.35;2.10;;;;;;;34.60;25.92;97799.22;5034140;28;20280;-69
2022/08/04 11:35:32;;;;;;;2.70;2.50;;;;;;;34.01;26.44;97802.13;5034172;28;20284;-68
2022/08/04 11:38:09;;;;;;;2.30;2.10;;;;;;;33.94;26.80;97794.56;5034486;28;20273;-69
2022/08/04 11:40:49;;;;;;;3.80;3.50;;;;;;;33.88;27.11;97793.31;5033882;28;20275;-69
2022/08/04 11:43:27;;;;;;;2.50;2.28;;;;;;;34.05;27.17;97794.69;5034096;28;20544;-70
2022/08/04 11:46:03;;;;;;;2.92;2.53;;;;;;;33.89;27.51;97794.09;5033905;28;20657;-70
2022/08/04 11:48:35;;;;;;;2.97;2.75;;;;;;;33.80;27.36;97797.16;5033949;28;20197;-69
2022/08/04 11:51:04;;;;;;;3.33;2.80;;;;;;;33.63;27.25;97790.25;5033604;28;20208;-70
2022/08/04 11:53:34;;;;;;;2.72;2.38;;;;;;;33.61;27.02;97795.31;5033761;28;20237;-70
2022/08/04 11:56:04;;;;;;;6.22;3.35;;;;;;;33.47;27.43;97784.13;5033825;28;20720;-70
2022/08/04 11:58:31;;;;;;;8.95;6.78;;;;;;;33.37;28.34;97784.78;5015749;28;20230;-69
2022/08/04 12:01:08;;;;;;;9.30;8.43;;;;;;;33.28;28.93;97784.22;5033674;28;20322;-69
2022/08/04 12:04:05;;;;;;;4.38;2.20;;;;;;;33.28;27.73;97792.50;5033543;28;20193;-69
2022/08/04 12:06:55;;;;;;;2.20;2.10;;;;;;;33.33;27.96;97792.19;5012910;28;20252;-69
2022/08/04 12:09:59;;;;;;;2.47;2.30;;;;;;;33.23;27.71;97784.56;5033816;28;20256;-69
2022/08/04 12:12:47;;;;;;;1.88;1.77;;;;;;;33.42;27.29;97786.44;5033505;28;20186;-70
2022/08/04 12:15:30;;;;;;;2.40;2.17;;;;;;;33.89;26.77;97783.06;5016495;28;20218;-69
2022/08/04 12:18:07;;;;;;;3.80;2.15;;;;;;;33.90;26.51;97784.69;5015687;28;20186;-70
2022/08/04 12:20:48;;;;;;;2.00;1.90;;;;;;;33.75;27.29;97778.16;5032955;28;20700;-70
2022/08/04 12:23:22;;;;;;;3.75;3.50;;;;;;;33.43;27.42;97782.50;4999922;28;20193;-70
2022/08/04 12:25:54;;;;;;;6.00;5.50;;;;;;;33.46;27.52;97776.25;5033087;28;20720;-69